Time;durP1;ratioP1;P1;durP2;ratioP2;P2;SDS_P1;SDS_P2;PMS_P1;PMS_P2;Temp;Humidity;BMP_temperature;BMP_pressure;BME280_temperature;BME280_humidity;BME280_pressure;Samples;Min_cycle;Max_cycle;Signal;HPM_P1;HPM_P2
2021/05/16 00:02:03;;;;;;;0.40;0.40;;;;;;;8.77;89.04;99336.97;5105822;28;20012;-64
2021/05/16 00:04:29;;;;;;;1.75;1.42;;;;;;;8.75;88.96;99343.06;5105655;28;20111;-63
2021/05/16 00:06:54;;;;;;;0.40;0.40;;;;;;;8.72;88.84;99327.59;5105928;28;20141;-64
2021/05/16 00:09:20;;;;;;;0.30;0.30;;;;;;;8.70;88.91;99334.50;5105711;28;20391;-63
2021/05/16 00:11:45;;;;;;;0.32;0.32;;;;;;;8.64;88.93;99333.72;5105714;28;20026;-63
2021/05/16 00:14:11;;;;;;;0.30;0.30;;;;;;;8.64;88.71;99335.50;5104253;28;20095;-63
2021/05/16 00:16:37;;;;;;;0.20;0.20;;;;;;;8.60;88.46;99333.81;5105647;28;20024;-64
2021/05/16 00:19:04;;;;;;;0.25;0.25;;;;;;;8.52;88.75;99326.16;5105358;28;20107;-63
2021/05/16 00:21:29;;;;;;;0.30;0.30;;;;;;;8.58;88.50;99330.44;5104141;28;20028;-63
2021/05/16 00:23:55;;;;;;;0.40;0.40;;;;;;;8.54;88.62;99329.59;5105379;28;20034;-63
2021/05/16 00:26:20;;;;;;;0.30;0.30;;;;;;;8.53;88.49;99336.47;5105445;28;20028;-63
2021/05/16 00:28:45;;;;;;;0.30;0.30;;;;;;;8.48;88.40;99333.13;5104982;28;20046;-63
2021/05/16 00:31:11;;;;;;;0.43;0.43;;;;;;;8.50;88.29;99340.88;5105167;28;20039;-63
2021/05/16 00:33:36;;;;;;;0.35;0.35;;;;;;;8.46;88.39;99336.63;5105219;28;20039;-63
2021/05/16 00:36:01;;;;;;;0.20;0.20;;;;;;;8.45;88.47;99340.94;5105357;28;20054;-63
2021/05/16 00:38:27;;;;;;;1.10;1.10;;;;;;;8.45;88.41;99345.28;5105103;28;20020;-64
2021/05/16 00:40:53;;;;;;;0.30;0.30;;;;;;;8.44;88.75;99339.22;5105161;28;20032;-64
2021/05/16 00:43:18;;;;;;;3.50;2.83;;;;;;;8.46;88.80;99339.22;5104651;28;20016;-64
2021/05/16 00:45:47;;;;;;;0.30;0.30;;;;;;;8.49;88.50;99341.75;5105077;28;20154;-62
2021/05/16 00:48:12;;;;;;;0.32;0.32;;;;;;;8.50;88.20;99338.28;5104871;28;20055;-63
2021/05/16 00:50:41;;;;;;;0.47;0.47;;;;;;;8.45;88.23;99345.28;5104635;28;20040;-63
2021/05/16 00:53:08;;;;;;;0.35;0.35;;;;;;;8.40;88.47;99338.41;5104867;28;20063;-64
2021/05/16 00:55:33;;;;;;;0.30;0.30;;;;;;;8.41;88.26;99342.72;5104918;28;20020;-63
2021/05/16 00:58:06;;;;;;;0.35;0.35;;;;;;;8.38;88.22;99353.13;5104795;28;20035;-64
2021/05/16 01:00:39;;;;;;;0.30;0.30;;;;;;;8.37;88.00;99348.00;5102437;28;20031;-64
2021/05/16 01:03:05;;;;;;;0.30;0.30;;;;;;;8.35;88.11;99345.44;5104604;28;20024;-64
2021/05/16 01:05:30;;;;;;;0.70;0.70;;;;;;;8.34;87.76;99341.13;5105289;28;20360;-64
2021/05/16 01:07:56;;;;;;;0.30;0.30;;;;;;;8.30;88.05;99344.63;5104529;28;20023;-62
2021/05/16 01:10:21;;;;;;;0.30;0.30;;;;;;;8.32;87.89;99345.47;5104490;28;20032;-63
2021/05/16 01:12:49;;;;;;;1.00;1.00;;;;;;;8.27;88.12;99342.09;5104073;28;20059;-63
2021/05/16 01:15:18;;;;;;;0.28;0.28;;;;;;;8.26;88.15;99340.41;5104526;28;20080;-64
2021/05/16 01:17:44;;;;;;;0.40;0.40;;;;;;;8.25;88.24;99344.72;5104316;28;20016;-64
2021/05/16 01:20:13;;;;;;;0.30;0.30;;;;;;;8.28;88.24;99346.38;5104508;28;20107;-64
2021/05/16 01:22:39;;;;;;;0.30;0.30;;;;;;;8.24;88.31;99345.56;5104242;28;20020;-63
2021/05/16 01:25:07;;;;;;;0.38;0.38;;;;;;;8.28;88.35;99343.78;5104486;28;20046;-63
2021/05/16 01:27:33;;;;;;;0.30;0.30;;;;;;;8.27;88.07;99347.28;5103986;28;20298;-63
2021/05/16 01:29:59;;;;;;;0.50;0.50;;;;;;;8.26;88.38;99353.34;5104400;28;20027;-63
2021/05/16 01:32:25;;;;;;;0.90;0.90;;;;;;;8.28;88.28;99347.25;5104304;28;20384;-64
2021/05/16 01:34:50;;;;;;;0.40;0.40;;;;;;;8.30;88.06;99357.56;5104276;28;20452;-64
2021/05/16 01:37:17;;;;;;;0.57;0.57;;;;;;;8.26;88.05;99349.00;5104098;28;20023;-63
2021/05/16 01:39:48;;;;;;;0.32;0.32;;;;;;;8.25;87.99;99351.59;5104058;28;20073;-64
2021/05/16 01:42:15;;;;;;;0.30;0.30;;;;;;;8.23;87.95;99351.63;5104083;28;20483;-64
2021/05/16 01:44:40;;;;;;;0.28;0.28;;;;;;;8.23;87.90;99361.97;5103781;28;20031;-64
2021/05/16 01:47:06;;;;;;;0.30;0.30;;;;;;;8.23;87.94;99356.81;5103704;28;20024;-64
2021/05/16 01:49:56;;;;;;;0.30;0.30;;;;;;;8.26;87.83;99353.34;5103782;28;20035;-63
2021/05/16 01:52:29;;;;;;;0.30;0.30;;;;;;;8.24;87.75;99360.25;5103629;28;20067;-64
2021/05/16 01:54:54;;;;;;;;;;;;;;;8.24;87.54;99363.66;5102792;28;20024;-64
2021/05/16 01:57:20;;;;;;;0.30;0.30;;;;;;;8.15;87.69;99348.31;5103672;28;19907;-64
2021/05/16 01:59:46;;;;;;;0.40;0.40;;;;;;;8.16;87.70;99350.88;5103355;28;20080;-64
2021/05/16 02:02:12;;;;;;;0.20;0.20;;;;;;;8.14;87.71;99357.81;5103862;28;20320;-64
2021/05/16 02:04:38;;;;;;;0.30;0.30;;;;;;;8.13;88.09;99358.66;5103616;28;20024;-65
2021/05/16 02:07:04;;;;;;;0.52;0.52;;;;;;;8.13;88.16;99350.91;5103449;28;20039;-65
2021/05/16 02:09:29;;;;;;;0.35;0.35;;;;;;;8.14;88.13;99357.81;5103607;28;20024;-64
2021/05/16 02:11:55;;;;;;;0.30;0.30;;;;;;;8.17;88.15;99367.25;5102505;28;20056;-64
2021/05/16 02:14:31;;;;;;;0.30;0.30;;;;;;;8.15;88.29;99353.47;5103402;28;20032;-65
2021/05/16 02:17:02;;;;;;;0.30;0.30;;;;;;;8.17;88.20;99352.59;5103575;28;20031;-65
2021/05/16 02:19:27;;;;;;;0.30;0.30;;;;;;;8.19;88.17;99358.56;5103243;28;20055;-63
2021/05/16 02:21:53;;;;;;;0.30;0.30;;;;;;;8.20;87.98;99362.03;5103621;28;20267;-65
2021/05/16 02:24:19;;;;;;;0.30;0.30;;;;;;;8.23;87.87;99353.34;5103536;28;20048;-65
2021/05/16 02:26:45;;;;;;;0.30;0.30;;;;;;;8.21;87.98;99365.47;5103577;28;20079;-64
2021/05/16 02:29:11;;;;;;;0.75;0.75;;;;;;;8.18;87.90;99358.59;5102908;28;20024;-63
2021/05/16 02:31:37;;;;;;;0.30;0.30;;;;;;;8.17;87.93;99360.34;5118899;28;20016;-65
2021/05/16 02:34:04;;;;;;;0.30;0.30;;;;;;;8.19;87.79;99366.34;5103169;28;20024;-65
2021/05/16 02:36:30;;;;;;;0.30;0.30;;;;;;;8.16;87.53;99356.03;5102790;28;20293;-64
2021/05/16 02:38:56;;;;;;;0.40;0.40;;;;;;;8.18;87.80;99364.63;5103068;28;20058;-65
2021/05/16 02:41:21;;;;;;;0.30;0.30;;;;;;;8.22;87.67;99362.00;5103196;28;20024;-65
2021/05/16 02:43:47;;;;;;;0.50;0.50;;;;;;;8.18;87.60;99368.94;5102542;28;20028;-64
2021/05/16 02:46:13;;;;;;;0.30;0.30;;;;;;;8.16;87.71;99366.38;5103127;28;20040;-64
2021/05/16 02:48:38;;;;;;;0.30;0.30;;;;;;;8.19;87.71;99361.16;5102910;28;20020;-64
2021/05/16 02:51:04;;;;;;;0.30;0.30;;;;;;;8.14;87.75;99357.81;5102916;28;20079;-64
2021/05/16 02:53:29;;;;;;;0.30;0.30;;;;;;;8.16;87.55;99362.97;5102903;28;20028;-64
2021/05/16 02:55:55;;;;;;;0.30;0.30;;;;;;;8.14;87.58;99368.16;5103065;28;20021;-65
2021/05/16 02:58:20;;;;;;;0.30;0.30;;;;;;;8.13;87.60;99363.84;5102619;28;20020;-65
2021/05/16 03:00:46;;;;;;;0.30;0.30;;;;;;;8.13;87.76;99368.19;5103043;28;20048;-65
2021/05/16 03:03:11;;;;;;;0.30;0.30;;;;;;;8.14;87.66;99373.31;5102714;28;20349;-65
2021/05/16 03:05:36;;;;;;;0.30;0.30;;;;;;;8.14;87.54;99373.31;5103115;28;20048;-65
2021/05/16 03:08:02;;;;;;;1.02;1.02;;;;;;;8.13;87.62;99371.59;5102834;28;20058;-65
2021/05/16 03:10:28;;;;;;;0.30;0.30;;;;;;;8.13;87.73;99371.59;5102674;28;20084;-64
2021/05/16 03:12:53;;;;;;;0.60;0.60;;;;;;;8.12;87.84;99376.78;5102413;28;20050;-64
2021/05/16 03:15:18;;;;;;;0.40;0.40;;;;;;;8.14;87.96;99372.47;5103022;28;20027;-64
2021/05/16 03:17:44;;;;;;;1.10;0.88;;;;;;;8.17;87.53;99377.59;5101406;28;20023;-64
2021/05/16 03:20:10;;;;;;;0.30;0.30;;;;;;;8.14;87.72;99378.50;5102992;28;20026;-64
2021/05/16 03:22:35;;;;;;;0.40;0.40;;;;;;;8.15;87.94;99376.75;5104453;28;20036;-64
2021/05/16 03:25:01;;;;;;;0.30;0.30;;;;;;;8.14;87.82;99378.50;5106285;28;20024;-65
2021/05/16 03:27:26;;;;;;;0.40;0.40;;;;;;;8.17;87.70;99381.03;5106331;28;20020;-65
2021/05/16 03:29:53;;;;;;;0.60;0.60;;;;;;;8.19;87.68;99379.25;5106102;28;20540;-65
2021/05/16 03:32:18;;;;;;;0.30;0.30;;;;;;;8.18;87.76;99379.28;5121827;28;20024;-64
2021/05/16 03:34:44;;;;;;;0.30;0.30;;;;;;;8.17;87.75;99378.44;5106362;28;20031;-65
2021/05/16 03:37:09;;;;;;;1.27;1.27;;;;;;;8.22;87.38;99377.50;5106154;28;20034;-65
2021/05/16 03:39:34;;;;;;;0.30;0.30;;;;;;;8.20;87.33;99374.94;5104885;28;20092;-65
2021/05/16 03:42:00;;;;;;;0.32;0.32;;;;;;;8.16;87.46;99366.38;5106246;28;20059;-65
2021/05/16 03:44:25;;;;;;;0.30;0.30;;;;;;;8.18;87.44;99372.38;5105923;28;20091;-65
2021/05/16 03:46:51;;;;;;;0.30;0.30;;;;;;;8.22;87.43;99370.63;5106180;28;20024;-65
2021/05/16 03:49:17;;;;;;;0.30;0.30;;;;;;;8.23;87.34;99368.88;5104734;28;20034;-65
2021/05/16 03:51:43;;;;;;;0.30;0.30;;;;;;;8.25;87.50;99369.72;5105898;28;20092;-65
2021/05/16 03:54:12;;;;;;;0.30;0.30;;;;;;;8.27;87.38;99367.97;5105821;28;20075;-65
2021/05/16 03:56:38;;;;;;;0.30;0.30;;;;;;;8.29;87.59;99363.63;5105853;28;20070;-65
2021/05/16 03:59:04;;;;;;;0.30;0.30;;;;;;;8.31;87.23;99365.31;5105541;28;20024;-65
2021/05/16 04:01:30;;;;;;;0.30;0.30;;;;;;;8.37;87.28;99366.91;5105928;28;20024;-64
2021/05/16 04:03:56;;;;;;;0.30;0.30;;;;;;;8.39;87.04;99367.75;5105544;28;20122;-65
2021/05/16 04:06:21;;;;;;;0.57;0.57;;;;;;;8.41;86.81;99365.16;5105851;28;20020;-65
2021/05/16 04:08:47;;;;;;;0.47;0.47;;;;;;;8.41;86.76;99365.16;5105783;28;20519;-65
2021/05/16 04:11:12;;;;;;;0.30;0.30;;;;;;;8.44;86.60;99362.50;5106027;28;20053;-65
2021/05/16 04:13:38;;;;;;;0.30;0.30;;;;;;;8.48;86.57;99360.72;5105514;28;20024;-65
2021/05/16 04:16:03;;;;;;;0.30;0.30;;;;;;;8.45;86.49;99366.78;5105671;28;20035;-65
2021/05/16 04:18:29;;;;;;;0.30;0.30;;;;;;;8.47;86.46;99365.03;5105532;28;20073;-65
2021/05/16 04:20:55;;;;;;;0.25;0.25;;;;;;;8.43;86.21;99364.22;5105832;28;20028;-65
2021/05/16 04:23:21;;;;;;;0.45;0.45;;;;;;;8.47;86.14;99359.88;5105461;28;20032;-64
2021/05/16 04:25:46;;;;;;;1.92;1.80;;;;;;;8.51;86.05;99368.44;5105710;28;20153;-65
2021/05/16 04:28:12;;;;;;;0.30;0.30;;;;;;;8.53;85.95;99364.09;5105329;28;20039;-66
2021/05/16 04:30:37;;;;;;;0.30;0.30;;;;;;;8.56;85.74;99366.66;5105430;28;20075;-65
2021/05/16 04:33:02;;;;;;;0.45;0.45;;;;;;;8.54;85.87;99366.69;5105122;28;20024;-65
2021/05/16 04:35:28;;;;;;;0.25;0.25;;;;;;;8.57;86.12;99360.59;5104814;28;20266;-65
2021/05/16 04:37:53;;;;;;;0.30;0.30;;;;;;;8.60;85.61;99360.56;5105146;28;20024;-65
2021/05/16 04:40:18;;;;;;;0.38;0.38;;;;;;;8.66;85.75;99372.53;5105250;28;20119;-64
2021/05/16 04:42:44;;;;;;;2.85;1.55;;;;;;;8.65;85.27;99358.75;5105025;28;20023;-65
2021/05/16 04:45:10;;;;;;;0.77;0.77;;;;;;;8.74;85.74;99359.47;5104982;28;20091;-65
2021/05/16 04:47:36;;;;;;;0.30;0.30;;;;;;;8.78;85.79;99359.38;5105099;28;20412;-64
2021/05/16 04:50:02;;;;;;;0.30;0.30;;;;;;;8.84;85.42;99361.00;5104945;28;20056;-66
2021/05/16 04:52:27;;;;;;;0.30;0.30;;;;;;;8.91;85.41;99365.16;5103380;28;20047;-64
2021/05/16 04:54:52;;;;;;;0.57;0.57;;;;;;;9.02;85.06;99371.91;5104970;28;20020;-65
2021/05/16 04:57:18;;;;;;;0.30;0.30;;;;;;;9.03;84.62;99363.25;5104779;28;20111;-64
2021/05/16 04:59:46;;;;;;;0.28;0.28;;;;;;;9.11;84.77;99374.31;5104591;28;20096;-66
2021/05/16 05:02:11;;;;;;;0.32;0.32;;;;;;;9.19;85.46;99361.22;5104978;28;20036;-66
2021/05/16 05:04:37;;;;;;;0.30;0.30;;;;;;;9.38;84.97;99361.69;5104618;28;20027;-66
2021/05/16 05:07:06;;;;;;;20.17;6.15;;;;;;;9.44;84.23;99362.47;5104856;28;20020;-66
2021/05/16 05:09:35;;;;;;;0.50;0.50;;;;;;;9.54;84.09;99369.16;5104945;28;20020;-66
2021/05/16 05:12:00;;;;;;;0.30;0.30;;;;;;;9.59;83.77;99369.91;5104641;28;20133;-66
2021/05/16 05:14:26;;;;;;;0.30;0.30;;;;;;;9.64;83.24;99372.41;5104599;28;20016;-66
2021/05/16 05:16:51;;;;;;;0.30;0.30;;;;;;;9.72;82.60;99370.50;5104636;28;20020;-66
2021/05/16 05:19:17;;;;;;;0.30;0.30;;;;;;;9.76;82.24;99373.91;5104446;28;20027;-66
2021/05/16 05:21:42;;;;;;;0.30;0.30;;;;;;;9.88;82.21;99370.16;5104650;28;20402;-66
2021/05/16 05:24:08;;;;;;;0.30;0.30;;;;;;;9.93;80.80;99370.94;5104421;28;20032;-66
2021/05/16 05:26:34;;;;;;;2.40;1.13;;;;;;;9.96;80.80;99370.00;5104510;28;20105;-66
2021/05/16 05:28:59;;;;;;;0.40;0.40;;;;;;;10.02;80.13;99369.84;5104053;28;20042;-66
2021/05/16 05:31:24;;;;;;;0.30;0.30;;;;;;;10.12;80.77;99365.31;5104305;28;20016;-66
2021/05/16 05:33:50;;;;;;;0.30;0.30;;;;;;;10.26;79.95;99370.16;5104271;28;20035;-66
2021/05/16 05:36:15;;;;;;;0.30;0.30;;;;;;;10.32;79.66;99370.00;5104444;28;20039;-66
2021/05/16 05:38:40;;;;;;;0.30;0.30;;;;;;;10.45;79.89;99351.56;5104154;28;20017;-65
2021/05/16 05:41:06;;;;;;;0.30;0.30;;;;;;;10.54;80.14;99354.81;5104343;28;20100;-66
2021/05/16 05:43:31;;;;;;;0.30;0.30;;;;;;;10.72;79.97;99362.19;5103784;28;20105;-65
2021/05/16 05:45:56;;;;;;;0.30;0.30;;;;;;;10.77;78.83;99363.75;5103293;28;20314;-65
2021/05/16 05:48:22;;;;;;;0.30;0.30;;;;;;;10.74;77.63;99363.84;5104170;28;20027;-65
2021/05/16 05:50:48;;;;;;;0.28;0.28;;;;;;;10.65;76.49;99364.91;5104376;28;20050;-66
2021/05/16 05:53:14;;;;;;;0.30;0.30;;;;;;;10.59;76.85;99367.66;5103884;28;20024;-65
2021/05/16 05:55:39;;;;;;;0.30;0.30;;;;;;;10.65;78.09;99369.25;5103958;28;20039;-67
2021/05/16 05:58:04;;;;;;;0.35;0.35;;;;;;;10.74;78.29;99368.16;5103553;28;20526;-65
2021/05/16 06:00:30;;;;;;;0.40;0.40;;;;;;;10.86;77.71;99369.59;5103886;28;20023;-65
2021/05/16 06:02:59;;;;;;;0.20;0.20;;;;;;;11.00;79.15;99367.50;5103729;28;20031;-65
2021/05/16 06:05:26;;;;;;;0.40;0.40;;;;;;;11.23;79.73;99365.16;5103763;28;20026;-64
2021/05/16 06:07:52;;;;;;;0.20;0.20;;;;;;;11.51;79.58;99369.56;5103696;28;20020;-64
2021/05/16 06:10:18;;;;;;;0.30;0.30;;;;;;;11.85;80.37;99367.72;5103750;28;20031;-65
2021/05/16 06:12:43;;;;;;;0.20;0.20;;;;;;;12.09;80.75;99368.72;5103469;28;20025;-66
2021/05/16 06:15:10;;;;;;;0.30;0.30;;;;;;;12.25;80.20;99360.44;5103352;28;20024;-66
2021/05/16 06:17:35;;;;;;;0.30;0.30;;;;;;;12.49;81.15;99357.94;5103407;28;20054;-65
2021/05/16 06:20:01;;;;;;;0.20;0.20;;;;;;;12.79;82.27;99362.13;5103496;28;20024;-65
2021/05/16 06:22:26;;;;;;;0.30;0.30;;;;;;;13.02;79.50;99354.38;5103541;28;20039;-65
2021/05/16 06:24:51;;;;;;;0.20;0.20;;;;;;;13.34;77.50;99372.34;5103474;28;20028;-66
2021/05/16 06:27:17;;;;;;;0.30;0.30;;;;;;;13.71;79.40;99358.88;5103778;28;20020;-65
2021/05/16 06:29:42;;;;;;;0.30;0.30;;;;;;;14.49;79.04;99358.41;5118974;28;20027;-64
2021/05/16 06:32:09;;;;;;;0.20;0.20;;;;;;;15.06;76.51;99352.56;5103609;28;20452;-65
2021/05/16 06:34:35;;;;;;;0.30;0.30;;;;;;;15.32;74.43;99355.75;5103408;28;20020;-66
2021/05/16 06:37:04;;;;;;;0.20;0.20;;;;;;;15.21;72.77;99353.63;5103371;28;20032;-65
2021/05/16 06:39:30;;;;;;;0.52;0.52;;;;;;;14.66;66.75;99351.63;5103260;28;20028;-66
2021/05/16 06:41:56;;;;;;;0.20;0.20;;;;;;;13.96;66.73;99355.31;5103403;28;20031;-66
2021/05/16 06:44:22;;;;;;;1.30;1.20;;;;;;;13.41;67.84;99356.47;5103089;28;20024;-65
2021/05/16 06:46:48;;;;;;;0.30;0.30;;;;;;;12.95;68.70;99350.28;5103413;28;20027;-66
2021/05/16 06:49:13;;;;;;;0.43;0.43;;;;;;;12.63;70.25;99360.94;5103149;28;20028;-66
2021/05/16 06:51:39;;;;;;;0.30;0.30;;;;;;;12.46;72.56;99368.44;5103064;28;20119;-65
2021/05/16 06:54:06;;;;;;;0.30;0.30;;;;;;;12.34;72.16;99367.09;5103266;28;20048;-65
2021/05/16 06:56:33;;;;;;;0.30;0.30;;;;;;;12.22;72.33;99371.78;5103265;28;20020;-65
2021/05/16 06:58:58;;;;;;;0.30;0.30;;;;;;;12.15;73.03;99372.88;5106743;28;20053;-66
2021/05/16 07:01:23;;;;;;;0.30;0.30;;;;;;;12.17;73.02;99370.22;5107351;28;20020;-66
2021/05/16 07:03:49;;;;;;;0.30;0.30;;;;;;;12.25;74.10;99365.63;5122904;28;20028;-66
2021/05/16 07:06:14;;;;;;;0.57;0.57;;;;;;;12.23;70.52;99367.44;5107169;28;20020;-66
2021/05/16 07:08:40;;;;;;;0.30;0.30;;;;;;;12.04;69.79;99370.59;5106834;28;20031;-66
2021/05/16 07:11:06;;;;;;;0.30;0.30;;;;;;;11.92;70.55;99365.78;5106772;28;20031;-67
2021/05/16 07:13:31;;;;;;;0.30;0.30;;;;;;;11.84;72.37;99371.19;5106419;28;20019;-66
2021/05/16 07:15:56;;;;;;;0.35;0.35;;;;;;;11.96;74.41;99369.97;5106726;28;20135;-67
2021/05/16 07:18:25;;;;;;;0.30;0.30;;;;;;;12.07;71.73;99370.50;5106645;28;20028;-65
2021/05/16 07:20:51;;;;;;;0.35;0.35;;;;;;;11.94;71.64;99362.22;5106704;28;20024;-64
2021/05/16 07:23:17;;;;;;;1.00;1.00;;;;;;;11.89;73.07;99371.91;5106751;28;20419;-65
2021/05/16 07:25:42;;;;;;;0.30;0.30;;;;;;;11.89;73.98;99366.69;5106793;28;20355;-66
2021/05/16 07:28:08;;;;;;;1.05;0.95;;;;;;;11.87;74.42;99371.94;5106428;28;20044;-66
2021/05/16 07:30:34;;;;;;;0.28;0.28;;;;;;;11.90;74.90;99379.66;5106671;28;20039;-66
2021/05/16 07:32:59;;;;;;;1.70;1.65;;;;;;;11.88;74.88;99376.28;5105189;28;20046;-65
2021/05/16 07:35:24;;;;;;;0.30;0.30;;;;;;;11.83;74.18;99364.28;5106633;28;20028;-65
2021/05/16 07:37:50;;;;;;;0.20;0.20;;;;;;;11.78;74.40;99375.69;5106361;28;20032;-65
2021/05/16 07:40:15;;;;;;;0.30;0.30;;;;;;;11.81;74.87;99372.13;5105218;28;20024;-66
2021/05/16 07:42:41;;;;;;;0.65;0.65;;;;;;;11.90;75.75;99373.63;5106283;28;20016;-63
2021/05/16 07:45:07;;;;;;;0.20;0.20;;;;;;;12.05;75.72;99374.03;5104743;28;20023;-62
2021/05/16 07:47:33;;;;;;;0.30;0.30;;;;;;;12.08;74.88;99374.81;5106190;28;20479;-62
2021/05/16 07:49:59;;;;;;;0.63;0.63;;;;;;;12.04;74.84;99365.38;5106346;28;20084;-64
2021/05/16 07:52:25;;;;;;;0.30;0.30;;;;;;;12.09;74.44;99373.91;5104710;28;20404;-63
2021/05/16 07:54:50;;;;;;;0.30;0.30;;;;;;;12.00;75.18;99366.38;5106162;28;20030;-63
2021/05/16 07:57:16;;;;;;;0.30;0.30;;;;;;;12.00;75.81;99376.78;5105988;28;20498;-64
2021/05/16 07:59:41;;;;;;;0.30;0.30;;;;;;;11.95;75.04;99373.47;5105664;28;20024;-63
2021/05/16 08:02:07;;;;;;;0.40;0.40;;;;;;;11.86;75.42;99365.06;5106140;28;20376;-63
2021/05/16 08:04:33;;;;;;;0.38;0.38;;;;;;;11.83;75.79;99372.94;5104357;28;20059;-63
2021/05/16 08:06:58;;;;;;;0.20;0.20;;;;;;;11.82;76.37;99367.81;5105749;28;20047;-63
2021/05/16 08:09:24;;;;;;;0.88;0.88;;;;;;;11.91;76.38;99367.50;5104650;28;20027;-64
2021/05/16 08:11:50;;;;;;;0.40;0.40;;;;;;;11.97;76.13;99366.47;5105732;28;20016;-63
2021/05/16 08:14:16;;;;;;;0.30;0.30;;;;;;;11.97;76.45;99366.47;5105324;28;20020;-64
2021/05/16 08:16:41;;;;;;;0.30;0.30;;;;;;;11.94;76.30;99372.63;5105734;28;20051;-63
2021/05/16 08:19:08;;;;;;;0.30;0.30;;;;;;;12.01;76.35;99368.91;5120837;28;20246;-63
2021/05/16 08:21:34;;;;;;;0.30;0.30;;;;;;;12.09;75.41;99373.06;5105361;28;20092;-64
2021/05/16 08:23:59;;;;;;;1.35;1.27;;;;;;;12.14;74.85;99368.59;5105326;28;20024;-64
2021/05/16 08:26:25;;;;;;;0.30;0.30;;;;;;;12.17;73.86;99370.22;5105486;28;20076;-64
2021/05/16 08:28:50;;;;;;;0.30;0.30;;;;;;;12.16;74.56;99366.78;5104954;28;20068;-64
2021/05/16 08:31:15;;;;;;;0.30;0.30;;;;;;;12.22;75.06;99366.56;5105186;28;20146;-64
2021/05/16 08:33:41;;;;;;;0.60;0.60;;;;;;;12.26;74.95;99357.78;5105086;28;20056;-65
2021/05/16 08:36:06;;;;;;;0.50;0.50;;;;;;;12.42;76.07;99362.47;5105159;28;20039;-64
2021/05/16 08:38:32;;;;;;;0.30;0.30;;;;;;;12.59;76.91;99364.50;5105053;28;20027;-64
2021/05/16 08:40:57;;;;;;;0.30;0.30;;;;;;;12.74;75.94;99363.16;5105107;28;20028;-64
2021/05/16 08:43:23;;;;;;;0.30;0.30;;;;;;;12.80;74.65;99362.09;5104684;28;20008;-63
2021/05/16 08:45:48;;;;;;;0.22;0.22;;;;;;;12.73;74.06;99374.47;5105024;28;20023;-63
2021/05/16 08:48:13;;;;;;;0.30;0.30;;;;;;;12.64;73.24;99372.16;5104771;28;20050;-64
2021/05/16 08:50:39;;;;;;;0.38;0.38;;;;;;;12.58;72.28;99365.44;5104939;28;20423;-64
2021/05/16 08:53:04;;;;;;;0.30;0.30;;;;;;;12.60;72.83;99374.00;5104684;28;20044;-64
2021/05/16 08:55:30;;;;;;;1.42;1.38;;;;;;;12.60;73.11;99375.78;5104916;28;20024;-63
2021/05/16 08:57:56;;;;;;;0.30;0.30;;;;;;;12.68;73.43;99372.94;5104955;28;20026;-64
2021/05/16 09:00:24;;;;;;;0.50;0.50;;;;;;;12.67;71.46;99366.03;5104660;28;20031;-63
2021/05/16 09:03:05;;;;;;;0.30;0.30;;;;;;;12.81;72.66;99373.38;5104921;28;20035;-64
2021/05/16 09:05:37;;;;;;;0.30;0.30;;;;;;;13.18;72.22;99364.22;5104818;28;20028;-64
2021/05/16 09:08:29;;;;;;;0.30;0.30;;;;;;;13.92;73.39;99366.75;5104458;28;20043;-65
2021/05/16 09:11:00;;;;;;;0.30;0.30;;;;;;;14.24;70.76;99364.63;5103430;28;20111;-65
2021/05/16 09:13:27;;;;;;;0.22;0.22;;;;;;;14.62;69.42;99358.75;5104475;28;20523;-64
2021/05/16 09:16:05;;;;;;;0.30;0.30;;;;;;;14.85;68.50;99363.03;5104732;28;20023;-64
2021/05/16 09:18:38;;;;;;;0.25;0.25;;;;;;;15.00;70.95;99360.66;5104550;28;20020;-64
2021/05/16 09:21:30;;;;;;;1.60;1.50;;;;;;;15.24;68.76;99358.72;5104456;28;20020;-65
2021/05/16 09:24:01;;;;;;;0.20;0.20;;;;;;;15.21;68.51;99364.09;5104402;28;20084;-63
2021/05/16 09:26:31;;;;;;;0.30;0.30;;;;;;;15.14;68.83;99361.81;5104771;28;20024;-64
2021/05/16 09:29:41;;;;;;;0.20;0.20;;;;;;;15.02;68.72;99364.06;5104004;28;20028;-63
2021/05/16 09:32:08;;;;;;;0.20;0.20;;;;;;;15.09;69.87;99365.50;5104615;28;20050;-63
2021/05/16 09:34:35;;;;;;;1.45;1.30;;;;;;;14.96;69.97;99353.88;5119902;28;20100;-65
2021/05/16 09:37:00;;;;;;;0.20;0.20;;;;;;;14.81;67.86;99356.22;5104447;28;20085;-63
2021/05/16 09:39:29;;;;;;;0.25;0.25;;;;;;;14.63;68.49;99368.28;5104423;28;20028;-64
2021/05/16 09:41:59;;;;;;;0.60;0.60;;;;;;;14.46;67.76;99366.38;5119819;28;20016;-63
2021/05/16 09:44:39;;;;;;;0.20;0.20;;;;;;;14.49;67.73;99359.25;5103761;28;20035;-63
2021/05/16 09:47:16;;;;;;;0.30;0.30;;;;;;;14.40;66.16;99377.06;5104344;28;20381;-63
2021/05/16 09:49:47;;;;;;;0.38;0.38;;;;;;;14.25;67.50;99374.16;5103868;28;20083;-63
2021/05/16 09:52:18;;;;;;;0.20;0.20;;;;;;;14.25;68.38;99368.94;5103882;28;20051;-63
2021/05/16 09:54:56;;;;;;;0.20;0.20;;;;;;;14.29;69.30;99375.75;5103962;28;20028;-63
2021/05/16 09:57:22;;;;;;;0.30;0.30;;;;;;;14.25;68.34;99361.97;5104049;28;20027;-63
2021/05/16 09:59:47;;;;;;;0.20;0.20;;;;;;;14.17;68.60;99361.44;5103712;28;20472;-66
2021/05/16 10:02:16;;;;;;;0.38;0.38;;;;;;;14.08;68.88;99369.63;5104168;28;20012;-63
2021/05/16 10:04:44;;;;;;;0.20;0.20;;;;;;;13.99;69.24;99357.81;5103660;28;20031;-64
2021/05/16 10:07:10;;;;;;;0.50;0.50;;;;;;;13.94;70.38;99359.75;5103847;28;20020;-63
2021/05/16 10:09:35;;;;;;;0.20;0.20;;;;;;;13.93;71.47;99358.88;5103738;28;20024;-64
2021/05/16 10:12:05;;;;;;;0.30;0.30;;;;;;;13.95;71.62;99359.69;5103617;28;20031;-65
2021/05/16 10:14:36;;;;;;;0.20;0.20;;;;;;;13.97;72.76;99362.22;5103433;28;20038;-65
2021/05/16 10:17:03;;;;;;;0.30;0.30;;;;;;;14.05;71.48;99357.56;5119520;28;20074;-65
2021/05/16 10:19:36;;;;;;;0.28;0.28;;;;;;;13.99;71.00;99352.59;5103522;28;20020;-66
2021/05/16 10:22:15;;;;;;;1.58;1.48;;;;;;;13.96;69.84;99347.50;5103804;28;20024;-64
2021/05/16 10:24:45;;;;;;;0.30;0.30;;;;;;;13.87;70.81;99354.75;5103832;28;20039;-64
2021/05/16 10:27:15;;;;;;;0.50;0.50;;;;;;;13.80;68.58;99352.47;5103865;28;20055;-64
2021/05/16 10:29:51;;;;;;;0.30;0.30;;;;;;;13.74;69.23;99349.16;5103410;28;20031;-63
2021/05/16 10:32:45;;;;;;;0.30;0.30;;;;;;;13.82;71.42;99346.25;5104975;28;20020;-63
2021/05/16 10:35:11;;;;;;;0.30;0.30;;;;;;;14.12;69.82;99351.16;5106865;28;20040;-63
2021/05/16 10:37:55;;;;;;;0.30;0.30;;;;;;;14.29;71.92;99338.34;5107777;28;20024;-65
2021/05/16 10:40:25;;;;;;;0.30;0.30;;;;;;;14.61;72.02;99331.78;5106495;28;20076;-64
2021/05/16 10:42:54;;;;;;;0.20;0.20;;;;;;;15.04;73.53;99324.78;5107719;28;20165;-64
2021/05/16 10:45:33;;;;;;;0.30;0.30;;;;;;;15.34;72.54;99330.41;5107627;28;20476;-64
2021/05/16 10:48:20;;;;;;;0.25;0.25;;;;;;;15.50;68.15;99321.84;5107493;28;20028;-64
2021/05/16 10:50:57;;;;;;;0.30;0.30;;;;;;;15.43;67.89;99321.25;5107542;28;20371;-63
2021/05/16 10:53:28;;;;;;;0.30;0.30;;;;;;;15.28;66.60;99320.22;5107444;28;20020;-62
2021/05/16 10:56:12;;;;;;;1.20;1.20;;;;;;;15.22;65.75;99312.66;5107409;28;20024;-63
2021/05/16 10:58:43;;;;;;;0.20;0.20;;;;;;;15.07;66.33;99315.03;5107228;28;20034;-63
2021/05/16 11:01:17;;;;;;;0.20;0.20;;;;;;;15.06;67.94;99313.34;5107382;28;20008;-62
2021/05/16 11:03:57;;;;;;;0.30;0.30;;;;;;;15.03;67.68;99323.91;5105918;28;20498;-63
2021/05/16 11:06:31;;;;;;;1.30;0.63;;;;;;;14.84;66.65;99324.75;5107727;28;20035;-63
2021/05/16 11:08:56;;;;;;;0.28;0.28;;;;;;;14.67;67.90;99316.75;5107223;28;20027;-64
2021/05/16 11:11:28;;;;;;;0.20;0.20;;;;;;;14.60;69.12;99321.41;5122773;28;20472;-63
2021/05/16 11:13:53;;;;;;;1.75;1.00;;;;;;;14.52;67.66;99313.88;5106662;28;20035;-64
2021/05/16 11:16:19;;;;;;;9.93;5.50;;;;;;;14.40;69.24;99315.25;5107203;28;20400;-64
2021/05/16 11:18:44;;;;;;;8.30;6.15;;;;;;;14.42;69.15;99315.19;5106955;28;20030;-64
2021/05/16 11:21:10;;;;;;;12.73;7.50;;;;;;;14.49;69.66;99303.56;5106936;28;20030;-62
2021/05/16 11:23:38;;;;;;;9.57;6.88;;;;;;;14.73;69.06;99299.06;5106644;28;20047;-63
2021/05/16 11:26:10;;;;;;;8.93;6.30;;;;;;;14.95;67.52;99316.41;5106665;28;20028;-61
2021/05/16 11:28:38;;;;;;;7.80;5.30;;;;;;;14.85;65.91;99307.31;5106298;28;20035;-64
2021/05/16 11:31:19;;;;;;;6.63;4.75;;;;;;;14.71;67.39;99300.88;5106464;28;20028;-64
2021/05/16 11:33:48;;;;;;;9.43;5.28;;;;;;;14.77;69.66;99291.94;5106613;28;20069;-63
2021/05/16 11:36:19;;;;;;;7.22;5.05;;;;;;;15.12;68.56;99291.31;5106568;28;20035;-63
2021/05/16 11:38:47;;;;;;;6.10;4.20;;;;;;;15.26;66.58;99282.81;5106483;28;20204;-63